• Join FlightAware (Why Join?)
  • Login
  • US Flag 
09:22PM EST


 

Airport Tracker/Info


-or-


 

Live Flight TrackerFlight Track Log ✈ SWA2336 ✈ 04-May-2013 ✈ KTPA - KIND

Flight Track Log - Related Links

Times and Time Zones

All times are in EDT time to prevent confusion due to time zone crossing. See the SWA2336 flight status page for this flight to view local times or setup timezone preferences in your user account.

Time Position Orientation Groundspeed Altitude Reporting Facility
EDT Latitude Longitude Course Direction KTS MPH feet Rate Location/Type
11:04AM 28.0333 -82.5333 360° North 189 217 2,400  Level Tampa TRACON
11:06AM 28.1661 -82.5300 North 264 304 7,700 3,060 Climbing Jacksonville Center
11:07AM 28.2392 -82.5508 346° North 264 304 11,600 3,780 Climbing Jacksonville Center
11:08AM 28.3164 -82.5458 North 269 310 15,300 2,400 Climbing Jacksonville Center
11:09AM 28.4019 -82.5764 343° North 288 331 16,400 2,040 Climbing Jacksonville Center
11:10AM 28.5003 -82.6139 341° North 328 377 19,400 2,760 Climbing Jacksonville Center
11:11AM 28.6025 -82.6561 340° North 367 422 22,000 2,580 Climbing Jacksonville Center
11:12AM 28.7092 -82.6961 342° North 389 448 24,600 2,400 Climbing Jacksonville Center
11:13AM 28.8217 -82.7147 352° North 400 460 26,900 2,100 Climbing Jacksonville Center
11:14AM 28.9386 -82.7194 358° North 411 473 28,900 1,500 Climbing Jacksonville Center
11:15AM 29.0597 -82.7264 357° North 421 484 30,000 780 Climbing Jacksonville Center
11:16AM 29.1808 -82.6928 14° North 434 499 30,500 1,200 Climbing Jacksonville Center
11:17AM 29.3017 -82.6592 14° North 439 505 32,500 1,740 Climbing Jacksonville Center
11:18AM 29.4250 -82.6494 North 445 512 34,000 1,620 Climbing Jacksonville Center
11:19AM 29.5461 -82.6919 343° North 412 474 35,800 1,320 Climbing Jacksonville Center
11:20AM 29.6567 -82.7228 346° North 399 459 36,700 900 Climbing Jacksonville Center
11:21AM 29.7675 -82.7561 345° North 408 470 37,700 1,020 Climbing Jacksonville Center
11:22AM 29.8822 -82.7919 345° North 415 478 38,800 780 Climbing Jacksonville Center
11:23AM 29.9972 -82.8278 345° North 420 483 39,300 600 Climbing Jacksonville Center
11:24AM 30.1183 -82.8614 347° North 426 490 40,000 300 Climbing Jacksonville Center
11:25AM 30.2372 -82.8975 345° North 432 497 40,000  Level Jacksonville Center
11:26AM 30.3542 -82.9333 345° North 437 503 40,000  Level Jacksonville Center
11:27AM 30.4753 -82.9697 345° North 437 503 40,000  Level Jacksonville Center
11:28AM 30.5942 -83.0061 345° North 437 503 40,000  Level Jacksonville Center
11:29AM 30.7133 -83.0447 344° North 437 503 40,000  Level Jacksonville Center
11:30AM 30.8300 -83.0836 344° North 437 503 40,000  Level Jacksonville Center
11:31AM 30.9367 -83.1178 345° North 437 503 40,000  Level Jacksonville Center
11:32AM 31.0700 -83.1594 345° North 437 503 40,000  Level Jacksonville Center
11:33AM 31.1639 -83.1889 345° North 442 509 40,000  Level Jacksonville Center
11:34AM 31.3058 -83.2331 345° North 442 509 40,000  Level Jacksonville Center
11:35AM 31.4247 -83.2700 345° North 442 509 40,000  Level Jacksonville Center
11:37AM 31.6153 -83.3317 345° North 439 505 40,000  Level Atlanta Center
11:38AM 31.7322 -83.3697 345° North 439 505 40,000  Level Atlanta Center
11:39AM 31.8514 -83.4081 345° North 439 505 40,000  Level Atlanta Center
11:40AM 31.9728 -83.4464 345° North 439 505 40,000  Level Atlanta Center
11:41AM 32.0919 -83.4872 344° North 439 505 40,000  Level Atlanta Center
11:42AM 32.2131 -83.5283 344° North 439 505 40,000  Level Atlanta Center
11:43AM 32.3322 -83.5669 345° North 439 505 40,000  Level Atlanta Center
11:44AM 32.4533 -83.6031 346° North 439 505 40,000  Level Atlanta Center
11:45AM 32.5725 -83.6444 344° North 439 505 40,000  Level Atlanta Center
11:46AM 32.6936 -83.6833 345° North 439 505 40,000  Level Atlanta Center
11:47AM 32.8128 -83.7225 345° North 439 505 40,000  Level Atlanta Center
11:48AM 32.9319 -83.7592 346° North 439 505 40,000  Level Atlanta Center
11:49AM 33.0508 -83.8033 343° North 439 505 40,000  Level Atlanta Center
11:50AM 33.1700 -83.8378 346° North 439 505 40,000  Level Atlanta Center
11:51AM 33.2911 -83.8797 344° North 439 505 40,000  Level Atlanta Center
11:52AM 33.4247 -83.9244 344° North 439 505 40,000  Level Atlanta Center
11:53AM 33.5458 -83.9639 345° North 445 512 40,000  Level Atlanta Center
11:54AM 33.6669 -84.0064 344° North 445 512 40,000  Level Atlanta Center
11:55AM 33.7881 -84.0439 346° North 445 512 40,000  Level Atlanta Center
11:56AM 33.9092 -84.0839 345° North 445 512 40,000  Level Atlanta Center
11:57AM 34.0300 -84.1239 345° North 445 512 40,000  Level Atlanta Center
11:58AM 34.1511 -84.1642 345° North 445 512 40,000  Level Atlanta Center
11:59AM 34.2722 -84.2072 344° North 445 512 40,000  Level Atlanta Center
12:00PM 34.3911 -84.2478 344° North 445 512 40,000  Level Atlanta Center
12:01PM 34.5119 -84.2883 345° North 445 512 40,000  Level Atlanta Center
12:02PM 34.6331 -84.3317 344° North 450 518 40,000  Level Atlanta Center
12:03PM 34.7581 -84.3750 344° North 458 527 40,000  Level Atlanta Center
12:04PM 34.8811 -84.4161 345° North 458 527 40,000  Level Atlanta Center
12:05PM 34.9872 -84.4572 342° North 450 518 40,000  Level Atlanta Center
12:06PM 35.1125 -84.4983 345° North 450 518 40,000  Level Atlanta Center
12:07PM 35.2375 -84.5422 344° North 456 525 40,000  Level Atlanta Center
12:08PM 35.3603 -84.5864 344° North 456 525 40,000  Level Atlanta Center
12:09PM 35.4833 -84.6278 345° North 456 525 40,000  Level Atlanta Center
12:10PM 35.6081 -84.6697 345° North 456 525 40,000  Level Atlanta Center
12:11PM 35.7331 -84.7142 344° North 456 525 40,000  Level Atlanta Center
12:12PM 35.9775 -84.7994 344° North 465 535 40,000  Level Indianapolis Center
12:13PM 36.0997 -84.8439 344° North 464 534 40,000  Level Indianapolis Center
12:14PM 36.2231 -84.8883 344° North 465 535 40,000  Level Indianapolis Center
12:16PM 36.3508 -84.9178 349° North 465 535 40,000 -300 Level Indianapolis Center
12:17PM 36.4800 -84.9381 353° North 467 537 39,500 -720 Descending Indianapolis Center
12:18PM 36.6117 -84.9581 353° North 474 545 38,600 -1,080 Descending Indianapolis Center
12:19PM 36.7739 -84.9842 353° North 491 565 37,400 -1,080 Descending Indianapolis Center
12:20PM 36.9083 -85.0125 350° North 491 565 36,500 -960 Descending Indianapolis Center
12:21PM 37.0425 -85.0394 351° North 488 562 35,500 -960 Descending Indianapolis Center
12:22PM 37.1672 -85.0692 349° North 491 565 34,600 -900 Descending Indianapolis Center
12:23PM 37.2969 -85.1217 342° North 488 562 33,700 -1,080 Descending Indianapolis Center
12:24PM 37.4497 -85.1822 343° North 491 565 32,500 -840 Descending Indianapolis Center
12:25PM 37.5831 -85.2339 343° North 497 572 32,000 -300 Descending Indianapolis Center
12:26PM 37.7133 -85.2867 342° North 493 567 32,000  Level Indianapolis Center
12:27PM 37.8439 -85.3381 343° North 490 564 32,000  Level Indianapolis Center
12:28PM 37.9597 -85.3839 343° North 494 568 32,000  Level Indianapolis Center
12:29PM 38.1153 -85.4450 343° North 487 560 32,000 -720 Level Indianapolis Center
12:30PM 38.2467 -85.4975 343° North 491 565 30,600 -1,920 Descending Indianapolis Center
12:31PM 38.3733 -85.5486 342° North 480 552 28,100 -2,400 Descending Indianapolis Center
12:32PM 38.4986 -85.6003 342° North 473 544 25,700 -2,280 Descending Indianapolis Center
12:33PM 38.6189 -85.6433 344° North 455 524 23,500 -2,220 Descending Indianapolis Center
12:34PM 38.7414 -85.6633 353° North 433 498 21,200 -2,400 Descending Indianapolis Center
12:35PM 38.8608 -85.6856 352° North 433 498 18,700 -2,460 Descending Indianapolis Center
12:36PM 38.9781 -85.7058 352° North 428 493 16,200 -2,340 Descending Indianapolis Center
12:37PM 39.0931 -85.7256 352° North 421 484 14,000 -1,620 Descending Indianapolis Center
12:38PM 39.1997 -85.7458 352° North 399 459 13,000 -1,260 Descending Indianapolis Center
12:39PM 39.3169 -85.7767 348° North 367 422 11,500 -1,500 Descending Indianapolis Center
12:40PM 39.3922 -85.8622 319° Northwest 363 418 10,000 -780 Descending Indianapolis Center
12:41PM 39.4592 -85.9419 317° Northwest 335 386 10,000  Level Indianapolis Center
12:42PM 39.5231 -86.0175 318° Northwest 318 366 10,000 -660 Level Indianapolis Center
12:43PM 39.5844 -86.0900 318° Northwest 306 352 8,700 -1,380 Descending Indianapolis Center
12:44PM 39.6408 -86.1589 317° Northwest 289 333 7,200 -1,200 Descending Indianapolis Center
12:45PM 39.6500 -86.2167 282° West 265 305 6,900 -1,080 Descending Indianapolis TRACON
12:46PM 39.6000 -86.2833 226° Southwest 240 276 5,500 -1,140 Descending Indianapolis TRACON
12:46PM 39.5806 -86.3042 220° Southwest 248 285 5,200 -1,320 Descending Indianapolis Center
12:47PM 39.5931 -86.3744 283° West 250 288 3,600 -1,200 Descending Indianapolis Center
12:48PM 39.6397 -86.4039 334° Northwest 224 258 2,800 -960 Descending Indianapolis Center
12:49PM 39.6733 -86.3628 43° Northeast 163 188 1,700 -1,020 Descending Indianapolis Center
12:50PM 39.6833 -86.3500 45° Northeast 126 145 1,300 -480 Descending Indianapolis TRACON
12:51PM 39.7267 -86.2950 44° Northeast 143 165 800 -360 Descending Indianapolis Center
12:53PM 39.7173 -86.2947 142° Southeast  Level Estimated